createdAt,value
2024-05-09T00:00:43.552Z,10.75
2024-05-09T00:03:11.552Z,10.81
2024-05-09T00:05:40.315Z,10.76
2024-05-09T00:08:07.155Z,10.51
2024-05-09T00:10:37.399Z,10.40
2024-05-09T00:13:05.911Z,10.54
2024-05-09T00:15:33.481Z,10.61
2024-05-09T00:18:00.384Z,10.55
2024-05-09T00:20:35.287Z,10.41
2024-05-09T00:23:06.803Z,10.41
2024-05-09T00:25:33.588Z,10.31
2024-05-09T00:28:00.098Z,10.55
2024-05-09T00:30:33.522Z,10.53
2024-05-09T00:33:02.793Z,10.70
2024-05-09T00:35:29.769Z,10.47
2024-05-09T00:37:56.493Z,10.51
2024-05-09T00:40:31.088Z,10.32
2024-05-09T00:43:05.365Z,10.38
2024-05-09T00:45:31.871Z,10.29
2024-05-09T00:47:59.102Z,10.31
2024-05-09T00:50:33.793Z,10.27
2024-05-09T00:53:03.221Z,10.22
2024-05-09T00:55:30.034Z,10.18
2024-05-09T00:57:56.518Z,10.14
2024-05-09T01:00:31.404Z,9.99
2024-05-09T01:03:04.902Z,9.95
2024-05-09T01:05:32.414Z,9.96
2024-05-09T01:07:59.054Z,9.92
2024-05-09T01:10:33.437Z,9.81
2024-05-09T01:13:01.688Z,9.83
2024-05-09T01:15:28.204Z,9.82
2024-05-09T01:17:56.314Z,9.71
2024-05-09T01:20:32.017Z,9.68
2024-05-09T01:23:06.863Z,9.67
2024-05-09T01:25:33.454Z,9.65
2024-05-09T01:27:59.954Z,9.53
2024-05-09T01:30:33.357Z,9.58
2024-05-09T01:33:02.943Z,9.57
2024-05-09T01:35:29.709Z,9.59
2024-05-09T01:37:56.295Z,9.50
2024-05-09T01:40:32.694Z,9.50
2024-05-09T01:43:03.344Z,9.41
2024-05-09T01:45:29.831Z,9.47
2024-05-09T01:47:56.509Z,9.47
2024-05-09T01:50:34.277Z,9.54
2024-05-09T01:53:05.594Z,9.41
2024-05-09T01:55:32.226Z,9.32
2024-05-09T01:57:58.724Z,9.34
2024-05-09T02:00:36.800Z,9.44
2024-05-09T02:03:13.353Z,9.35
2024-05-09T02:05:42.847Z,9.27
2024-05-09T02:08:12.419Z,9.27
2024-05-09T02:10:38.964Z,9.36
2024-05-09T02:13:06.104Z,9.38
2024-05-09T02:15:32.585Z,9.38
2024-05-09T02:17:59.213Z,9.26
2024-05-09T02:20:33.697Z,9.29
2024-05-09T02:23:04.311Z,9.31
2024-05-09T02:25:31.432Z,9.35
2024-05-09T02:27:57.948Z,9.41
2024-05-09T02:30:31.153Z,9.27
2024-05-09T02:33:05.804Z,9.31
2024-05-09T02:35:32.888Z,9.26
2024-05-09T02:37:59.773Z,9.28
2024-05-09T02:40:35.067Z,9.28
2024-05-09T02:43:04.166Z,9.17
2024-05-09T02:45:30.721Z,9.15
2024-05-09T02:47:57.572Z,9.07
2024-05-09T02:50:33.092Z,9.05
2024-05-09T02:53:04.510Z,9.10
2024-05-09T02:55:31.127Z,9.12
2024-05-09T02:57:57.732Z,9.13
2024-05-09T03:00:30.092Z,8.99
2024-05-09T03:03:04.400Z,8.96
2024-05-09T03:05:31.249Z,9.06
2024-05-09T03:07:57.905Z,9.15
2024-05-09T03:10:28.578Z,9.09
2024-05-09T03:12:55.795Z,9.03
2024-05-09T03:15:22.735Z,8.94
2024-05-09T03:17:49.563Z,9.01
2024-05-09T03:20:23.319Z,9.00
2024-05-09T03:22:52.726Z,9.00
2024-05-09T03:25:20.607Z,8.95
2024-05-09T03:27:47.108Z,9.09
2024-05-09T03:30:25.928Z,9.10
2024-05-09T03:33:00.293Z,9.04
2024-05-09T03:35:26.955Z,9.15
2024-05-09T03:37:53.539Z,9.14
2024-05-09T03:40:23.823Z,9.08
2024-05-09T03:42:53.087Z,9.14
2024-05-09T03:45:19.633Z,9.10
2024-05-09T03:47:46.400Z,9.09
2024-05-09T03:50:21.917Z,8.94
2024-05-09T03:52:52.523Z,9.06
2024-05-09T03:55:19.113Z,8.96
2024-05-09T03:57:45.622Z,9.13
2024-05-09T04:00:18.027Z,9.28
2024-05-09T04:02:52.374Z,9.37
2024-05-09T04:05:19.359Z,9.42
2024-05-09T04:07:46.010Z,9.45
2024-05-09T04:10:21.027Z,9.56
2024-05-09T04:12:54.499Z,9.59
2024-05-09T04:15:21.046Z,9.70
2024-05-09T04:17:51.372Z,9.96
2024-05-09T04:20:24.810Z,10.14
2024-05-09T04:23:00.608Z,10.10
2024-05-09T04:25:27.196Z,10.26
2024-05-09T04:27:55.915Z,10.38
2024-05-09T04:30:33.759Z,10.56
2024-05-09T04:33:04.886Z,10.72
2024-05-09T04:35:31.686Z,10.75
2024-05-09T04:37:58.291Z,10.97
2024-05-09T04:40:31.625Z,11.33
2024-05-09T04:43:01.538Z,11.63
2024-05-09T04:45:28.019Z,11.66
2024-05-09T04:47:54.822Z,11.90
2024-05-09T04:50:29.969Z,12.14
2024-05-09T04:53:02.922Z,12.36
2024-05-09T04:55:29.496Z,12.62
2024-05-09T04:57:56.013Z,12.69
2024-05-09T05:00:31.799Z,12.82
2024-05-09T05:03:05.926Z,12.89
2024-05-09T05:05:32.833Z,13.11
2024-05-09T05:07:59.470Z,13.27
2024-05-09T05:10:33.560Z,13.40
2024-05-09T05:13:22.830Z,13.42
2024-05-09T05:15:50.559Z,13.52
2024-05-09T05:18:17.313Z,13.70
2024-05-09T05:20:44.201Z,13.88
2024-05-09T05:23:11.952Z,13.96
2024-05-09T05:25:38.528Z,13.95
2024-05-09T05:28:05.175Z,13.94
2024-05-09T05:30:34.716Z,13.88
2024-05-09T05:33:02.095Z,14.06
2024-05-09T05:35:28.914Z,13.87
2024-05-09T05:37:55.606Z,14.14
2024-05-09T05:40:28.651Z,13.93
2024-05-09T05:43:02.698Z,13.78
2024-05-09T05:45:29.214Z,13.87
2024-05-09T05:47:55.969Z,14.06
2024-05-09T05:50:28.015Z,14.26
2024-05-09T05:53:01.812Z,14.39
2024-05-09T05:55:28.391Z,14.54
2024-05-09T05:57:54.884Z,14.53
2024-05-09T06:00:29.400Z,14.69
2024-05-09T06:03:02.173Z,14.79
2024-05-09T06:05:29.027Z,14.95
2024-05-09T06:07:55.747Z,15.12
2024-05-09T06:10:26.301Z,15.15
2024-05-09T06:13:01.300Z,15.37
2024-05-09T06:15:27.814Z,15.58
2024-05-09T06:17:54.555Z,15.69
2024-05-09T06:20:31.236Z,15.68
2024-05-09T06:23:03.110Z,15.45
2024-05-09T06:25:29.704Z,15.56
2024-05-09T06:27:56.188Z,15.59
2024-05-09T06:30:30.060Z,15.51
2024-05-09T06:33:04.551Z,15.72
2024-05-09T06:35:31.524Z,15.64
2024-05-09T06:37:58.247Z,15.96
2024-05-09T06:40:29.445Z,15.96
2024-05-09T06:43:01.944Z,16.04
2024-05-09T06:45:28.434Z,16.24
2024-05-09T06:47:55.080Z,16.27
2024-05-09T06:50:24.416Z,16.36
2024-05-09T06:52:54.558Z,16.33
2024-05-09T06:55:21.044Z,16.75
2024-05-09T06:57:47.508Z,16.90
2024-05-09T07:00:22.698Z,16.91
2024-05-09T07:02:56.903Z,16.93
2024-05-09T07:05:23.904Z,16.98
2024-05-09T07:07:50.491Z,16.89
2024-05-09T07:10:22.159Z,16.88
2024-05-09T07:12:55.308Z,16.60
2024-05-09T07:15:21.817Z,17.19
2024-05-09T07:17:48.618Z,17.33
2024-05-09T07:20:22.955Z,17.59
2024-05-09T07:22:54.412Z,17.68
2024-05-09T07:25:20.916Z,17.56
2024-05-09T07:27:47.453Z,17.82
2024-05-09T07:30:20.341Z,18.08
2024-05-09T07:32:53.654Z,17.83
2024-05-09T07:35:20.363Z,17.94
2024-05-09T07:37:47.079Z,17.79
2024-05-09T07:40:21.292Z,17.65
2024-05-09T07:42:54.260Z,17.46
2024-05-09T07:45:39.880Z,17.51
2024-05-09T07:53:36.527Z,18.34
2024-05-09T07:55:56.021Z,18.07
2024-05-09T07:58:27.189Z,18.17
2024-05-09T08:00:54.241Z,18.43
2024-05-09T08:03:20.875Z,18.74
2024-05-09T08:05:47.514Z,18.35
2024-05-09T08:08:14.032Z,18.48
2024-05-09T08:10:40.658Z,18.70
2024-05-09T08:13:07.354Z,18.76
2024-05-09T08:15:33.970Z,18.57
2024-05-09T08:18:00.815Z,18.74
2024-05-09T08:20:31.295Z,18.69
2024-05-09T08:23:01.587Z,19.26
2024-05-09T08:25:28.283Z,19.56
2024-05-09T08:27:54.868Z,18.83
2024-05-09T08:30:29.070Z,18.84
2024-05-09T08:32:59.913Z,18.86
2024-05-09T08:35:26.603Z,18.86
2024-05-09T08:37:53.624Z,19.42
2024-05-09T08:40:28.113Z,19.79
2024-05-09T08:43:00.750Z,18.27
2024-05-09T08:45:27.338Z,19.14
2024-05-09T08:47:53.996Z,19.53
2024-05-09T08:50:31.427Z,19.92
2024-05-09T08:53:04.265Z,20.20
2024-05-09T08:55:30.774Z,19.94
2024-05-09T08:57:57.312Z,20.15
2024-05-09T09:00:33.720Z,20.20
2024-05-09T09:03:04.416Z,20.12
2024-05-09T09:05:31.209Z,20.09
2024-05-09T09:07:57.882Z,20.25
2024-05-09T09:10:29.932Z,19.93
2024-05-09T09:12:59.542Z,20.03
2024-05-09T09:15:26.078Z,20.19
2024-05-09T09:17:59.195Z,20.58
2024-05-09T09:20:35.500Z,19.85
2024-05-09T09:23:03.388Z,18.77
2024-05-09T09:25:29.990Z,19.14
2024-05-09T09:27:57.589Z,19.02
2024-05-09T09:30:34.570Z,18.61
2024-05-09T09:33:04.282Z,18.58
2024-05-09T09:35:30.950Z,18.25
2024-05-09T09:37:57.451Z,18.30
2024-05-09T09:40:32.089Z,18.43
2024-05-09T09:43:00.852Z,18.39
2024-05-09T09:45:30.604Z,18.36
2024-05-09T09:47:57.517Z,18.27
2024-05-09T09:50:31.718Z,17.98
2024-05-09T09:53:01.375Z,17.77
2024-05-09T09:55:28.463Z,17.71
2024-05-09T09:57:55.582Z,17.38
2024-05-09T10:00:27.448Z,17.68
2024-05-09T10:02:59.040Z,18.82
2024-05-09T10:05:25.929Z,19.84
2024-05-09T10:07:52.617Z,20.35
2024-05-09T10:10:31.851Z,20.72
2024-05-09T10:13:05.718Z,20.81
2024-05-09T10:15:48.057Z,19.56
2024-05-09T10:18:15.025Z,18.72
2024-05-09T10:20:45.131Z,18.34
2024-05-09T10:23:27.458Z,18.36
2024-05-09T10:25:57.356Z,18.13
2024-05-09T10:28:30.645Z,18.10
2024-05-09T10:31:06.854Z,17.91
2024-05-09T10:33:40.221Z,17.62
2024-05-09T10:36:33.091Z,17.64
2024-05-09T10:38:59.625Z,18.88
2024-05-09T10:41:26.114Z,19.99
2024-05-09T10:43:52.592Z,20.79
2024-05-09T10:46:19.501Z,21.08
2024-05-09T10:48:46.744Z,21.59
2024-05-09T10:51:13.345Z,22.21
2024-05-09T10:53:40.308Z,22.65
2024-05-09T10:56:06.842Z,21.81
2024-05-09T10:58:33.350Z,21.16
2024-05-09T11:01:01.187Z,20.38
2024-05-09T11:03:28.989Z,19.67
2024-05-09T11:05:55.989Z,19.51
2024-05-09T11:08:22.954Z,18.85
2024-05-09T11:10:50.805Z,18.81
2024-05-09T11:13:29.914Z,18.52
2024-05-09T11:15:56.551Z,19.38
2024-05-09T11:18:27.875Z,19.54
2024-05-09T11:20:56.062Z,19.46
2024-05-09T11:23:22.994Z,19.76
2024-05-09T11:25:49.914Z,20.10
2024-05-09T11:28:17.444Z,20.88
2024-05-09T11:30:44.094Z,21.64
2024-05-09T11:33:14.320Z,20.76
2024-05-09T11:35:41.037Z,20.25
2024-05-09T11:38:07.514Z,19.77
2024-05-09T11:40:34.698Z,19.11
2024-05-09T11:43:01.626Z,19.01
2024-05-09T11:45:28.325Z,18.75
2024-05-09T11:47:54.953Z,18.73
2024-05-09T11:50:27.289Z,18.77
2024-05-09T11:52:58.975Z,18.72
2024-05-09T11:55:28.126Z,19.19
2024-05-09T11:57:55.150Z,20.19
2024-05-09T12:02:58.870Z,22.31
2024-05-09T12:05:25.631Z,22.82
2024-05-09T12:07:52.450Z,22.95
2024-05-09T12:10:22.449Z,22.63
2024-05-09T12:12:53.432Z,22.02
2024-05-09T12:15:19.953Z,22.41
2024-05-09T12:17:49.480Z,22.40
2024-05-09T12:20:25.052Z,21.67
2024-05-09T12:22:55.133Z,21.95
2024-05-09T12:25:21.667Z,21.93
2024-05-09T12:27:48.226Z,22.30
2024-05-09T12:30:20.916Z,23.01
2024-05-09T12:32:55.373Z,23.52
2024-05-09T12:35:21.939Z,22.63
2024-05-09T12:37:48.485Z,23.20
2024-05-09T12:40:22.945Z,22.52
2024-05-09T12:42:57.866Z,21.60
2024-05-09T12:45:24.390Z,21.00
2024-05-09T12:47:50.937Z,21.23
2024-05-09T12:50:25.118Z,21.21
2024-05-09T12:52:58.008Z,21.25
2024-05-09T12:55:24.740Z,21.00
2024-05-09T12:57:51.353Z,20.78
2024-05-09T13:00:23.996Z,20.59
2024-05-09T13:02:57.645Z,20.91
2024-05-09T13:05:24.591Z,21.98
2024-05-09T13:07:51.252Z,22.57
2024-05-09T13:10:25.570Z,22.41
2024-05-09T13:12:58.079Z,23.69
2024-05-09T13:15:24.616Z,22.78
2024-05-09T13:17:51.135Z,22.64
2024-05-09T13:20:26.090Z,22.94
2024-05-09T13:22:58.438Z,23.81
2024-05-09T13:25:24.983Z,23.75
2024-05-09T13:27:51.511Z,24.74
2024-05-09T13:30:26.284Z,25.29
2024-05-09T13:33:01.055Z,25.13
2024-05-09T13:35:27.846Z,23.87
2024-05-09T13:37:54.354Z,23.22
2024-05-09T13:40:29.879Z,23.36
2024-05-09T13:43:01.896Z,22.67
2024-05-09T13:45:28.563Z,22.13
2024-05-09T13:47:55.175Z,21.98
2024-05-09T13:50:30.936Z,21.18
2024-05-09T13:53:01.473Z,21.00
2024-05-09T13:55:28.064Z,21.36
2024-05-09T13:57:55.360Z,22.27
2024-05-09T14:00:37.394Z,22.68
2024-05-09T14:03:08.649Z,22.36
2024-05-09T14:05:35.538Z,21.97
2024-05-09T14:08:02.180Z,21.62
2024-05-09T14:10:31.135Z,20.92
2024-05-09T14:12:58.741Z,20.38
2024-05-09T14:15:25.341Z,20.28
2024-05-09T14:17:51.907Z,20.48
2024-05-09T14:20:28.249Z,20.66
2024-05-09T14:22:57.996Z,20.84
2024-05-09T14:25:26.586Z,20.78
2024-05-09T14:27:53.324Z,20.75
2024-05-09T14:30:29.585Z,20.78
2024-05-09T14:33:01.300Z,20.59
2024-05-09T14:35:28.070Z,20.78
2024-05-09T14:37:54.586Z,20.47
2024-05-09T14:40:35.375Z,20.34
2024-05-09T14:43:07.361Z,20.55
2024-05-09T14:45:34.645Z,20.55
2024-05-09T14:48:01.501Z,21.03
2024-05-09T14:50:35.075Z,21.14
2024-05-09T14:53:05.832Z,21.90
2024-05-09T14:55:35.476Z,21.55
2024-05-09T14:58:02.683Z,21.32
2024-05-09T15:00:33.557Z,20.97
2024-05-09T15:03:03.054Z,21.33
2024-05-09T15:05:30.086Z,21.85
2024-05-09T15:07:56.963Z,21.81
2024-05-09T15:10:31.535Z,21.89
2024-05-09T15:13:01.853Z,21.66
2024-05-09T15:15:28.375Z,21.47
2024-05-09T15:17:54.992Z,21.25
2024-05-09T15:20:30.383Z,21.20
2024-05-09T15:23:01.038Z,20.77
2024-05-09T15:25:27.708Z,20.73
2024-05-09T15:27:54.552Z,20.72
2024-05-09T15:30:29.511Z,20.54
2024-05-09T15:32:58.436Z,20.62
2024-05-09T15:35:24.947Z,20.66
2024-05-09T15:37:51.448Z,20.32
2024-05-09T15:40:26.361Z,20.10
2024-05-09T15:43:02.007Z,19.87
2024-05-09T15:45:29.298Z,20.01
2024-05-09T15:47:56.238Z,20.15
2024-05-09T15:50:32.321Z,20.21
2024-05-09T15:53:04.181Z,20.36
2024-05-09T15:55:33.754Z,20.25
2024-05-09T15:58:00.858Z,20.22
2024-05-09T16:00:36.499Z,20.09
2024-05-09T16:03:06.734Z,20.06
2024-05-09T16:05:33.551Z,19.78
2024-05-09T16:08:00.244Z,19.86
2024-05-09T16:10:32.359Z,19.65
2024-05-09T16:13:00.650Z,19.43
2024-05-09T16:15:27.299Z,18.91
2024-05-09T16:17:54.037Z,19.18
2024-05-09T16:20:33.269Z,19.30
2024-05-09T16:23:05.067Z,19.23
2024-05-09T16:25:31.580Z,19.29
2024-05-09T16:31:27.203Z,19.14
2024-05-09T16:33:53.838Z,19.07
2024-05-09T16:36:20.398Z,18.95
2024-05-09T16:38:46.882Z,18.64
2024-05-09T16:41:15.364Z,18.62
2024-05-09T16:43:41.869Z,18.33
2024-05-09T16:46:08.986Z,18.25
2024-05-09T16:48:36.406Z,18.16
2024-05-09T16:51:02.916Z,18.07
2024-05-09T16:53:29.415Z,17.94
2024-05-09T16:55:55.895Z,17.93
2024-05-09T16:58:22.562Z,17.81
2024-05-09T17:00:49.981Z,17.56
2024-05-09T17:03:17.028Z,17.16
2024-05-09T17:05:45.594Z,17.02
2024-05-09T17:08:12.730Z,17.04
2024-05-09T17:10:39.307Z,16.63
2024-05-09T17:13:07.463Z,16.39
2024-05-09T17:15:35.248Z,16.47
2024-05-09T17:18:02.263Z,16.72
2024-05-09T17:20:33.566Z,16.28
2024-05-09T17:23:02.847Z,16.06
2024-05-09T17:25:29.576Z,15.96
2024-05-09T17:27:56.598Z,16.22
2024-05-09T17:30:28.991Z,15.90
2024-05-09T17:33:01.857Z,15.91
2024-05-09T17:35:28.577Z,15.93
2024-05-09T17:37:55.079Z,15.94
2024-05-09T17:40:30.703Z,15.87
2024-05-09T17:43:01.064Z,15.81
2024-05-09T17:45:27.567Z,15.81
2024-05-09T17:47:54.116Z,15.54
2024-05-09T17:50:27.483Z,15.44
2024-05-09T17:53:00.520Z,15.39
2024-05-09T17:55:27.230Z,15.31
2024-05-09T17:57:53.839Z,15.36
2024-05-09T18:00:29.023Z,15.24
2024-05-09T18:03:03.465Z,15.12
2024-05-09T18:05:30.196Z,15.06
2024-05-09T18:07:57.164Z,15.06
2024-05-09T18:10:29.935Z,14.92
2024-05-09T18:13:02.356Z,14.86
2024-05-09T18:15:28.998Z,14.78
2024-05-09T18:17:55.669Z,14.65
2024-05-09T18:20:32.623Z,14.72
2024-05-09T18:23:07.347Z,14.77
2024-05-09T18:25:34.070Z,14.71
2024-05-09T18:28:01.670Z,14.61
2024-05-09T18:30:34.185Z,14.55
2024-05-09T18:33:02.850Z,14.55
2024-05-09T18:35:29.658Z,14.50
2024-05-09T18:37:56.154Z,14.50
2024-05-09T18:40:31.237Z,14.55
2024-05-09T18:43:01.793Z,14.64
2024-05-09T18:45:28.528Z,14.49
2024-05-09T18:47:55.220Z,14.31
2024-05-09T18:50:31.689Z,14.36
2024-05-09T18:53:02.737Z,14.15
2024-05-09T18:55:29.664Z,14.01
2024-05-09T18:57:56.415Z,13.89
2024-05-09T19:00:31.561Z,13.87
2024-05-09T19:03:05.143Z,13.90
2024-05-09T19:05:32.753Z,13.90
2024-05-09T19:07:59.624Z,14.01
2024-05-09T19:10:29.283Z,13.74
2024-05-09T19:13:00.711Z,13.72
2024-05-09T19:15:27.424Z,13.80
2024-05-09T19:17:53.991Z,13.86
2024-05-09T19:20:28.490Z,13.69
2024-05-09T19:22:59.869Z,13.65
2024-05-09T19:25:26.360Z,13.75
2024-05-09T19:27:52.904Z,13.69
2024-05-09T19:30:29.297Z,13.69
2024-05-09T19:33:03.555Z,13.86
2024-05-09T19:35:30.355Z,13.96
2024-05-09T19:37:56.851Z,13.89
2024-05-09T19:40:29.153Z,13.89
2024-05-09T19:42:58.886Z,13.96
2024-05-09T19:45:25.481Z,13.94
2024-05-09T19:47:52.246Z,13.96
2024-05-09T19:50:26.713Z,13.94
2024-05-09T19:52:59.462Z,13.84
2024-05-09T19:55:26.254Z,13.98
2024-05-09T19:57:52.870Z,13.90
2024-05-09T20:00:26.057Z,13.97
2024-05-09T20:02:56.119Z,13.85
2024-05-09T20:05:23.333Z,13.79
2024-05-09T20:07:50.098Z,13.78
2024-05-09T20:10:23.430Z,13.88
2024-05-09T20:12:53.830Z,13.84
2024-05-09T20:15:20.366Z,13.81
2024-05-09T20:17:47.271Z,13.90
2024-05-09T20:20:24.466Z,13.95
2024-05-09T20:22:59.718Z,13.93
2024-05-09T20:25:26.230Z,13.97
2024-05-09T20:27:52.869Z,13.90
2024-05-09T20:30:25.578Z,13.99
2024-05-09T20:32:58.116Z,13.98
2024-05-09T20:35:26.244Z,13.96
2024-05-09T20:37:52.742Z,13.94
2024-05-09T20:40:26.078Z,13.91
2024-05-09T20:42:58.559Z,13.80
2024-05-09T20:45:25.082Z,13.74
2024-05-09T20:47:51.650Z,13.64
2024-05-09T20:50:28.415Z,13.56
2024-05-09T20:53:02.693Z,13.44
2024-05-09T20:55:30.020Z,13.34
2024-05-09T20:57:56.911Z,13.23
2024-05-09T21:00:30.265Z,13.24
2024-05-09T21:03:05.079Z,13.17
2024-05-09T21:05:31.914Z,13.12
2024-05-09T21:07:58.547Z,12.96
2024-05-09T21:12:52.825Z,12.97
2024-05-09T21:15:19.372Z,13.06
2024-05-09T21:17:45.959Z,13.04
2024-05-09T21:20:17.254Z,12.98
2024-05-09T21:22:47.186Z,12.82
2024-05-09T21:25:13.869Z,12.70
2024-05-09T21:27:40.567Z,12.68
2024-05-09T21:30:12.694Z,12.73
2024-05-09T21:32:42.432Z,13.03
2024-05-09T21:35:09.042Z,12.97
2024-05-09T21:37:35.549Z,12.96
2024-05-09T21:40:06.838Z,12.88
2024-05-09T21:42:35.577Z,12.89
2024-05-09T21:45:02.088Z,12.76
2024-05-09T21:47:28.800Z,12.99
2024-05-09T21:49:55.436Z,12.91
2024-05-09T21:52:21.999Z,12.74
2024-05-09T21:54:48.553Z,12.61
2024-05-09T21:57:15.153Z,12.66
2024-05-09T21:59:42.038Z,12.66
2024-05-09T22:02:08.898Z,12.73
2024-05-09T22:04:35.607Z,12.64
2024-05-09T22:07:04.554Z,12.80
2024-05-09T22:09:31.511Z,12.71
2024-05-09T22:11:58.219Z,12.89
2024-05-09T22:14:24.979Z,12.76
2024-05-09T22:16:51.480Z,12.71
2024-05-09T22:19:18.045Z,12.67
2024-05-09T22:21:44.632Z,12.77
2024-05-09T22:24:11.178Z,12.72
2024-05-09T22:26:37.658Z,12.74
2024-05-09T22:29:04.737Z,12.57
2024-05-09T22:31:31.236Z,12.69
2024-05-09T22:33:58.017Z,12.66
2024-05-09T22:36:24.681Z,12.75
2024-05-09T22:38:51.226Z,12.73
2024-05-09T22:41:17.702Z,12.71
2024-05-09T22:43:44.201Z,12.66
2024-05-09T22:46:10.757Z,12.59
2024-05-09T22:48:37.485Z,12.62
2024-05-09T22:51:04.183Z,12.56
2024-05-09T22:53:30.660Z,12.65
2024-05-09T22:55:57.159Z,12.59
2024-05-09T22:58:24.193Z,12.54
2024-05-09T23:00:51.042Z,12.53
2024-05-09T23:03:20.712Z,12.49
2024-05-09T23:05:47.558Z,12.36
2024-05-09T23:08:14.056Z,12.36
2024-05-09T23:10:40.701Z,12.29
2024-05-09T23:13:07.957Z,12.21
2024-05-09T23:15:35.681Z,12.27
2024-05-09T23:18:02.450Z,12.25
2024-05-09T23:20:36.359Z,12.18
2024-05-09T23:23:06.601Z,12.10
2024-05-09T23:25:33.340Z,12.07
2024-05-09T23:27:59.991Z,12.10
2024-05-09T23:30:36.534Z,12.06
2024-05-09T23:33:06.321Z,12.05
2024-05-09T23:35:32.965Z,11.95
2024-05-09T23:37:59.526Z,11.90
2024-05-09T23:40:36.920Z,11.94
2024-05-09T23:43:06.679Z,11.72
2024-05-09T23:45:33.509Z,11.60
2024-05-09T23:48:00.304Z,11.51
2024-05-09T23:50:34.114Z,11.66
2024-05-09T23:53:03.634Z,11.64
2024-05-09T23:55:31.303Z,11.68
2024-05-09T23:57:58.124Z,11.75
